Time;durP1;ratioP1;P1;durP2;ratioP2;P2;SDS_P1;SDS_P2;PMS_P1;PMS_P2;Temp;Humidity;BMP_temperature;BMP_pressure;BME280_temperature;BME280_humidity;BME280_pressure;Samples;Min_cycle;Max_cycle;Signal;HPM_P1;HPM_P2
2023/05/30 00:00:58;;;;;;;0.45;0.45;;;10.50;99.90;;;;;;5113491;28;20036;-69
2023/05/30 00:03:24;;;;;;;0.40;0.40;;;10.60;99.90;;;;;;5113260;28;21188;-69
2023/05/30 00:05:50;;;;;;;0.50;0.50;;;10.60;99.90;;;;;;5113488;28;20063;-69
2023/05/30 00:08:16;;;;;;;0.50;0.50;;;10.70;99.90;;;;;;5113412;28;20123;-69
2023/05/30 00:10:42;;;;;;;0.50;0.50;;;10.80;99.90;;;;;;5114887;28;20043;-70
2023/05/30 00:13:07;;;;;;;0.50;0.50;;;10.90;99.90;;;;;;5117185;28;20039;-69
2023/05/30 00:15:33;;;;;;;2.90;1.75;;;10.90;99.90;;;;;;5117046;28;20075;-70
2023/05/30 00:18:00;;;;;;;0.60;0.60;;;11.00;99.90;;;;;;5115603;28;20069;-70
2023/05/30 00:20:29;;;;;;;0.50;0.50;;;11.00;99.90;;;;;;5116061;28;20382;-69
2023/05/30 00:22:58;;;;;;;0.50;0.50;;;11.00;99.90;;;;;;5116836;28;20039;-70
2023/05/30 00:25:24;;;;;;;0.70;0.70;;;11.10;99.90;;;;;;5116944;28;20039;-69
2023/05/30 00:27:50;;;;;;;1.35;1.27;;;11.10;99.90;;;;;;5116864;28;20127;-70
2023/05/30 00:30:16;;;;;;;0.50;0.50;;;11.20;99.90;;;;;;5116751;28;20083;-69
2023/05/30 00:32:42;;;;;;;1.10;1.10;;;11.20;99.90;;;;;;5116811;28;20094;-69
2023/05/30 00:35:08;;;;;;;0.50;0.50;;;11.20;99.90;;;;;;5116464;28;20036;-69
2023/05/30 00:37:33;;;;;;;0.50;0.50;;;11.20;99.90;;;;;;5116699;28;20039;-70
2023/05/30 00:39:59;;;;;;;0.50;0.50;;;11.20;99.90;;;;;;5117059;28;20114;-70
2023/05/30 00:42:28;;;;;;;0.50;0.50;;;11.20;99.90;;;;;;5116555;28;20043;-69
2023/05/30 00:44:54;;;;;;;0.40;0.40;;;11.20;99.90;;;;;;5116454;28;20039;-69
2023/05/30 00:47:20;;;;;;;0.40;0.40;;;11.30;99.90;;;;;;5116564;28;20036;-69
2023/05/30 00:49:47;;;;;;;0.50;0.50;;;11.30;99.90;;;;;;5116476;28;20046;-69
2023/05/30 00:52:13;;;;;;;0.40;0.40;;;11.20;99.90;;;;;;5116442;28;20036;-70
2023/05/30 00:54:43;;;;;;;0.40;0.40;;;11.30;99.90;;;;;;5116447;28;20048;-69
2023/05/30 00:57:09;;;;;;;0.50;0.50;;;11.40;99.90;;;;;;5116387;28;20043;-70
2023/05/30 00:59:35;;;;;;;0.43;0.43;;;11.30;99.90;;;;;;5116213;28;20475;-70
2023/05/30 01:02:01;;;;;;;0.40;0.40;;;11.70;99.90;;;;;;5116456;28;20035;-69
2023/05/30 01:04:26;;;;;;;0.50;0.50;;;11.10;99.90;;;;;;5116480;28;20046;-70
2023/05/30 01:06:53;;;;;;;0.70;0.70;;;11.10;99.90;;;;;;5116016;28;20057;-69
2023/05/30 01:09:18;;;;;;;0.73;0.73;;;11.10;99.90;;;;;;5116086;28;20050;-69
2023/05/30 01:12:02;;;;;;;0.73;0.73;;;11.00;99.90;;;;;;5116027;28;20126;-70
2023/05/30 01:14:59;;;;;;;0.50;0.50;;;11.00;99.90;;;;;;5116013;28;20119;-71
2023/05/30 01:17:52;;;;;;;0.50;0.50;;;11.00;99.90;;;;;;5116221;28;20420;-71
2023/05/30 01:20:24;;;;;;;0.50;0.50;;;10.90;99.90;;;;;;5115897;28;20123;-70
2023/05/30 01:23:02;;;;;;;0.50;0.50;;;10.90;99.90;;;;;;5116086;28;20036;-69
2023/05/30 01:25:58;;;;;;;0.47;0.47;;;10.90;99.90;;;;;;5114739;28;20075;-70
2023/05/30 01:28:28;;;;;;;0.50;0.50;;;10.90;99.90;;;;;;5115935;28;20122;-69
2023/05/30 01:30:55;;;;;;;0.50;0.50;;;10.90;99.90;;;;;;5115655;28;20089;-69
2023/05/30 01:33:22;;;;;;;0.50;0.50;;;10.90;99.90;;;;;;5115349;28;20084;-70
2023/05/30 01:35:48;;;;;;;0.70;0.70;;;10.90;99.90;;;;;;5115563;28;20031;-70
2023/05/30 01:38:14;;;;;;;0.50;0.50;;;11.00;99.90;;;;;;5115796;28;20156;-70
2023/05/30 01:40:49;;;;;;;0.50;0.50;;;10.80;99.90;;;;;;5115886;28;20035;-70
2023/05/30 01:43:32;;;;;;;0.68;0.68;;;10.80;99.90;;;;;;5115277;28;20081;-69
2023/05/30 01:46:06;;;;;;;0.50;0.50;;;11.00;99.90;;;;;;5115790;28;20082;-70
2023/05/30 01:48:57;;;;;;;0.50;0.50;;;10.90;99.90;;;;;;5115310;28;20041;-69
2023/05/30 01:51:38;;;;;;;0.50;0.50;;;10.80;99.90;;;;;;5114357;28;20043;-70
2023/05/30 01:54:06;;;;;;;0.43;0.43;;;10.80;99.90;;;;;;5115142;28;20097;-70
2023/05/30 01:56:34;;;;;;;0.70;0.70;;;10.80;99.90;;;;;;5115115;28;20043;-70
2023/05/30 01:59:02;;;;;;;0.50;0.50;;;11.30;99.90;;;;;;5115065;28;20500;-70
2023/05/30 02:01:29;;;;;;;0.50;0.50;;;10.80;99.90;;;;;;5115062;28;20047;-70
2023/05/30 02:03:55;;;;;;;0.50;0.50;;;10.80;99.90;;;;;;5114900;28;20048;-70
2023/05/30 02:06:22;;;;;;;0.70;0.70;;;10.80;99.90;;;;;;5114953;28;20479;-71
2023/05/30 02:08:47;;;;;;;;;;;10.80;99.90;;;;;;5115791;28;20040;-70
2023/05/30 02:11:13;;;;;;;0.50;0.50;;;10.80;99.90;;;;;;5114875;28;20275;-69
2023/05/30 02:13:39;;;;;;;0.50;0.50;;;10.80;99.90;;;;;;5115157;28;20046;-69
2023/05/30 02:16:05;;;;;;;0.50;0.50;;;10.80;99.90;;;;;;5114800;28;20463;-69
2023/05/30 02:18:31;;;;;;;0.50;0.50;;;10.70;99.90;;;;;;5115028;28;20052;-69
2023/05/30 02:20:56;;;;;;;0.50;0.50;;;10.70;99.90;;;;;;5114750;28;20345;-69
2023/05/30 02:23:22;;;;;;;0.50;0.50;;;10.80;99.90;;;;;;5114521;28;20039;-69
2023/05/30 02:25:48;;;;;;;0.50;0.50;;;10.70;99.90;;;;;;5114693;28;20092;-69
2023/05/30 02:28:13;;;;;;;0.50;0.50;;;10.70;99.90;;;;;;5114530;28;20108;-70
2023/05/30 02:30:39;;;;;;;0.50;0.50;;;10.70;99.90;;;;;;5114592;28;20031;-70
2023/05/30 02:33:05;;;;;;;0.50;0.50;;;10.70;99.90;;;;;;5114301;28;20027;-69
2023/05/30 02:35:30;;;;;;;0.50;0.50;;;10.70;99.90;;;;;;5114475;28;20374;-69
2023/05/30 02:37:56;;;;;;;0.50;0.50;;;10.70;99.90;;;;;;5114415;28;20044;-70
2023/05/30 02:40:21;;;;;;;0.50;0.50;;;10.70;99.90;;;;;;5114337;28;20111;-69
2023/05/30 02:42:47;;;;;;;0.60;0.60;;;10.70;99.90;;;;;;5114319;28;20118;-69
2023/05/30 02:45:13;;;;;;;0.50;0.50;;;11.10;99.90;;;;;;5114271;28;20074;-69
2023/05/30 02:47:39;;;;;;;0.50;0.50;;;11.10;99.90;;;;;;5114004;28;20036;-70
2023/05/30 02:50:06;;;;;;;0.50;0.50;;;10.70;99.90;;;;;;5114283;28;20086;-69
2023/05/30 02:52:32;;;;;;;1.42;0.93;;;10.70;99.90;;;;;;5114188;28;20071;-69
2023/05/30 02:54:57;;;;;;;0.98;0.98;;;10.70;99.90;;;;;;5114178;28;20090;-70
2023/05/30 02:57:23;;;;;;;0.63;0.63;;;10.90;99.90;;;;;;5113842;28;20043;-69
2023/05/30 02:59:48;;;;;;;0.50;0.50;;;10.60;99.90;;;;;;5114340;28;20071;-69
2023/05/30 03:02:14;;;;;;;0.50;0.50;;;10.60;99.90;;;;;;5113807;28;20359;-70
2023/05/30 03:04:45;;;;;;;0.63;0.63;;;10.60;99.90;;;;;;5113978;28;20047;-69
2023/05/30 03:07:12;;;;;;;0.50;0.50;;;10.60;99.90;;;;;;5113895;28;20047;-69
2023/05/30 03:09:39;;;;;;;0.50;0.50;;;10.60;99.90;;;;;;5114339;28;20085;-70
2023/05/30 03:12:05;;;;;;;0.63;0.63;;;10.60;99.90;;;;;;5113935;28;20085;-70
2023/05/30 03:14:31;;;;;;;0.50;0.50;;;10.60;99.90;;;;;;5113926;28;20040;-69
2023/05/30 03:16:56;;;;;;;0.50;0.50;;;10.60;99.90;;;;;;5113808;28;20081;-70
2023/05/30 03:19:22;;;;;;;0.57;0.57;;;10.80;99.90;;;;;;5114037;28;20043;-69
2023/05/30 03:21:49;;;;;;;0.57;0.57;;;10.60;99.90;;;;;;5113882;28;20043;-69
2023/05/30 03:24:15;;;;;;;0.50;0.50;;;10.60;99.90;;;;;;5113797;28;20088;-70
2023/05/30 03:26:41;;;;;;;0.50;0.50;;;10.60;99.90;;;;;;5113878;28;20043;-69
2023/05/30 03:29:07;;;;;;;0.60;0.60;;;10.60;99.90;;;;;;5113849;28;20062;-71
2023/05/30 03:31:33;;;;;;;0.50;0.50;;;10.60;99.90;;;;;;5113861;28;20043;-70
2023/05/30 03:33:59;;;;;;;0.50;0.50;;;10.70;99.90;;;;;;5113838;28;20035;-69
2023/05/30 03:36:25;;;;;;;0.50;0.50;;;11.30;99.90;;;;;;5113674;28;20052;-69
2023/05/30 03:38:52;;;;;;;0.50;0.50;;;11.20;99.90;;;;;;5113787;28;20136;-69
2023/05/30 03:41:18;;;;;;;;;;;10.70;99.90;;;;;;5114529;28;20051;-70
2023/05/30 03:43:44;;;;;;;0.70;0.70;;;10.70;99.90;;;;;;5113672;28;20359;-70
2023/05/30 03:46:10;;;;;;;0.50;0.50;;;10.70;99.90;;;;;;5116018;28;20047;-69
2023/05/30 03:48:35;;;;;;;2.28;1.65;;;10.70;99.90;;;;;;5117640;28;20036;-69
2023/05/30 03:51:01;;;;;;;0.50;0.50;;;10.70;99.90;;;;;;5117539;28;20035;-69
2023/05/30 03:53:26;;;;;;;0.50;0.50;;;11.20;99.90;;;;;;5116362;28;20047;-70
2023/05/30 03:55:52;;;;;;;0.50;0.50;;;11.20;99.90;;;;;;5117519;28;20046;-69
2023/05/30 03:58:18;;;;;;;0.50;0.50;;;10.80;99.90;;;;;;5117217;28;20612;-70
2023/05/30 04:00:43;;;;;;;0.50;0.50;;;10.80;99.90;;;;;;5117485;28;20118;-69
2023/05/30 04:03:09;;;;;;;0.50;0.50;;;11.00;99.90;;;;;;5117257;28;20494;-70
2023/05/30 04:05:35;;;;;;;0.50;0.50;;;10.90;99.90;;;;;;5117312;28;20086;-70
2023/05/30 04:08:01;;;;;;;0.50;0.50;;;10.90;99.90;;;;;;5117323;27;20075;-70
2023/05/30 04:10:26;;;;;;;0.43;0.43;;;11.00;99.90;;;;;;5117207;28;20040;-69
2023/05/30 04:12:52;;;;;;;0.60;0.60;;;11.00;99.90;;;;;;5117476;28;20040;-71
2023/05/30 04:15:17;;;;;;;0.50;0.50;;;11.00;99.90;;;;;;5117108;28;20067;-69
2023/05/30 04:17:43;;;;;;;0.80;0.80;;;11.00;99.90;;;;;;5117121;28;20084;-69
2023/05/30 04:20:09;;;;;;;0.50;0.50;;;11.00;99.90;;;;;;5117087;28;20039;-69
2023/05/30 04:22:35;;;;;;;0.50;0.50;;;11.10;99.90;;;;;;5116601;28;20463;-69
2023/05/30 04:25:01;;;;;;;0.50;0.50;;;11.20;99.90;;;;;;5117032;28;20051;-70
2023/05/30 04:27:27;;;;;;;0.50;0.50;;;11.20;99.90;;;;;;5117234;28;20038;-69
2023/05/30 04:29:53;;;;;;;0.50;0.50;;;11.70;99.90;;;;;;5116870;28;20470;-70
2023/05/30 04:32:19;;;;;;;0.50;0.50;;;11.30;99.90;;;;;;5116866;28;20131;-70
2023/05/30 04:34:45;;;;;;;0.50;0.50;;;11.40;99.90;;;;;;5116784;28;20042;-70
2023/05/30 04:37:11;;;;;;;0.50;0.50;;;11.40;99.90;;;;;;5116706;28;20047;-70
2023/05/30 04:39:37;;;;;;;0.60;0.60;;;11.50;99.90;;;;;;5116601;28;20269;-69
2023/05/30 04:42:04;;;;;;;0.50;0.50;;;11.50;99.90;;;;;;5116483;28;20039;-70
2023/05/30 04:44:37;;;;;;;0.50;0.50;;;11.60;99.90;;;;;;5116563;28;20092;-69
2023/05/30 04:47:10;;;;;;;0.50;0.50;;;11.60;99.90;;;;;;5116554;28;20118;-69
2023/05/30 04:49:39;;;;;;;0.50;0.50;;;11.60;99.90;;;;;;5116513;28;20035;-69
2023/05/30 04:52:06;;;;;;;0.40;0.40;;;11.70;99.90;;;;;;5116480;28;20051;-70
2023/05/30 04:54:32;;;;;;;0.70;0.70;;;11.70;99.90;;;;;;5116378;28;20044;-70
2023/05/30 04:56:57;;;;;;;0.50;0.50;;;11.80;99.90;;;;;;5116023;28;20360;-70
2023/05/30 04:59:23;;;;;;;0.43;0.43;;;11.80;99.90;;;;;;5116370;28;20078;-69
2023/05/30 05:01:49;;;;;;;0.50;0.50;;;11.80;99.90;;;;;;5116213;28;20443;-70
2023/05/30 05:04:14;;;;;;;0.40;0.40;;;11.90;99.90;;;;;;5116285;28;20043;-70
2023/05/30 05:06:40;;;;;;;0.40;0.40;;;12.00;99.90;;;;;;5116142;28;20055;-69
2023/05/30 05:09:05;;;;;;;0.50;0.50;;;12.00;99.90;;;;;;5115904;28;20383;-69
2023/05/30 05:11:31;;;;;;;1.00;0.90;;;12.00;99.90;;;;;;5115899;28;20046;-70
2023/05/30 05:13:56;;;;;;;0.52;0.50;;;12.20;99.90;;;;;;5116051;28;20043;-70
2023/05/30 05:16:22;;;;;;;0.50;0.50;;;12.10;99.90;;;;;;5116002;28;20090;-69
2023/05/30 05:18:48;;;;;;;0.50;0.50;;;12.10;99.90;;;;;;5115886;28;20061;-70
2023/05/30 05:21:14;;;;;;;0.50;0.50;;;12.20;99.90;;;;;;5115924;28;20035;-70
2023/05/30 05:23:39;;;;;;;0.50;0.50;;;12.20;99.90;;;;;;5116099;28;20114;-70
2023/05/30 05:26:05;;;;;;;0.50;0.50;;;12.20;99.90;;;;;;5115815;28;20118;-69
2023/05/30 05:28:31;;;;;;;0.70;0.70;;;12.30;99.90;;;;;;5115767;28;20027;-69
2023/05/30 05:30:58;;;;;;;0.50;0.50;;;12.30;99.90;;;;;;5115659;28;20039;-69
2023/05/30 05:33:24;;;;;;;0.50;0.50;;;12.30;99.90;;;;;;5115570;28;20039;-70
2023/05/30 05:35:50;;;;;;;0.50;0.50;;;12.20;99.90;;;;;;5115769;27;20083;-71
2023/05/30 05:38:16;;;;;;;0.50;0.50;;;12.30;99.90;;;;;;5115479;28;20051;-69
2023/05/30 05:40:42;;;;;;;0.40;0.40;;;12.30;99.90;;;;;;5115504;28;20043;-70
2023/05/30 05:43:08;;;;;;;0.50;0.50;;;12.30;99.90;;;;;;5115349;28;20104;-70
2023/05/30 05:45:34;;;;;;;0.40;0.40;;;12.30;99.90;;;;;;5115401;28;20047;-70
2023/05/30 05:48:00;;;;;;;0.47;0.47;;;12.40;99.90;;;;;;5115343;28;20044;-69
2023/05/30 05:50:26;;;;;;;0.40;0.40;;;12.40;99.90;;;;;;5115027;28;20380;-70
2023/05/30 05:52:52;;;;;;;0.40;0.40;;;12.40;99.90;;;;;;5115258;28;20028;-69
2023/05/30 05:55:17;;;;;;;0.60;0.60;;;13.00;99.90;;;;;;5114016;28;20035;-70
2023/05/30 05:57:46;;;;;;;0.50;0.50;;;12.60;99.90;;;;;;5114868;28;20402;-69
2023/05/30 06:00:12;;;;;;;0.50;0.50;;;13.10;99.90;;;;;;5114849;28;20043;-69
2023/05/30 06:02:38;;;;;;;0.50;0.50;;;12.90;99.90;;;;;;5114590;28;20475;-70
2023/05/30 06:05:06;;;;;;;0.40;0.40;;;12.90;99.90;;;;;;5114798;28;20048;-70
2023/05/30 06:07:32;;;;;;;0.82;0.82;;;12.90;99.90;;;;;;5114909;28;20393;-70
2023/05/30 06:09:58;;;;;;;0.50;0.50;;;12.90;99.90;;;;;;5114546;28;20387;-69
2023/05/30 06:12:23;;;;;;;0.70;0.70;;;12.90;99.90;;;;;;5114692;28;20042;-70
2023/05/30 06:14:49;;;;;;;0.50;0.50;;;12.90;99.90;;;;;;5114625;28;20123;-69
2023/05/30 06:17:15;;;;;;;0.50;0.50;;;12.90;99.90;;;;;;5114791;28;20040;-69
2023/05/30 06:19:40;;;;;;;0.90;0.90;;;12.90;99.90;;;;;;5114764;28;20088;-69
2023/05/30 06:22:07;;;;;;;0.40;0.40;;;12.90;99.90;;;;;;5114745;28;20040;-70
2023/05/30 06:24:33;;;;;;;0.50;0.50;;;12.90;99.90;;;;;;5114476;28;20505;-70
2023/05/30 06:26:59;;;;;;;0.40;0.40;;;12.90;99.90;;;;;;5114619;28;20040;-70
2023/05/30 06:29:26;;;;;;;0.50;0.50;;;13.10;99.90;;;;;;5114568;28;20447;-69
2023/05/30 06:31:51;;;;;;;0.50;0.50;;;12.90;99.90;;;;;;5114523;28;20078;-69
2023/05/30 06:34:17;;;;;;;0.50;0.50;;;13.00;99.90;;;;;;5114487;28;20070;-71
2023/05/30 06:36:42;;;;;;;0.50;0.50;;;13.00;99.90;;;;;;5114486;28;20047;-70
2023/05/30 06:39:15;;;;;;;0.40;0.40;;;13.00;99.90;;;;;;5114427;28;20039;-70
2023/05/30 06:41:42;;;;;;;1.13;1.05;;;13.00;99.90;;;;;;5114624;28;20058;-70
2023/05/30 06:44:08;;;;;;;0.50;0.50;;;13.00;99.90;;;;;;5114328;28;20039;-69
2023/05/30 06:46:34;;;;;;;0.50;0.50;;;13.00;99.90;;;;;;5114336;28;20100;-70
2023/05/30 06:49:00;;;;;;;0.50;0.50;;;13.10;99.90;;;;;;5114327;28;20468;-69
2023/05/30 06:51:26;;;;;;;0.50;0.50;;;13.00;99.90;;;;;;5114658;28;20379;-70
2023/05/30 06:53:51;;;;;;;0.50;0.50;;;13.00;99.90;;;;;;5114515;28;20088;-69
2023/05/30 06:56:17;;;;;;;0.50;0.50;;;13.00;99.90;;;;;;5114154;28;20356;-70
2023/05/30 06:58:43;;;;;;;0.50;0.50;;;12.90;99.90;;;;;;5114160;28;20043;-69
2023/05/30 07:01:09;;;;;;;0.60;0.60;;;12.90;99.90;;;;;;5114172;28;20031;-70
2023/05/30 07:03:35;;;;;;;0.50;0.50;;;12.90;99.90;;;;;;5112610;28;20093;-70
2023/05/30 07:06:02;;;;;;;0.40;0.40;;;12.90;99.90;;;;;;5114069;28;20059;-70
2023/05/30 07:08:27;;;;;;;0.40;0.40;;;12.90;99.90;;;;;;5113763;28;20540;-70
2023/05/30 07:10:53;;;;;;;0.50;0.50;;;12.90;99.90;;;;;;5113938;28;20036;-70
2023/05/30 07:13:18;;;;;;;0.63;0.63;;;12.90;99.90;;;;;;5113991;28;20043;-70
2023/05/30 07:15:44;;;;;;;1.02;1.02;;;12.90;99.90;;;;;;5113994;28;20040;-70
2023/05/30 07:18:10;;;;;;;0.43;0.43;;;13.30;99.90;;;;;;5113704;28;20519;-70
2023/05/30 07:20:35;;;;;;;0.50;0.50;;;13.00;99.90;;;;;;5117239;28;20473;-70
2023/05/30 07:23:01;;;;;;;0.50;0.50;;;12.90;99.90;;;;;;5117971;28;20114;-69
2023/05/30 07:25:26;;;;;;;0.40;0.40;;;12.90;99.90;;;;;;5118177;28;20509;-69
2023/05/30 07:27:52;;;;;;;0.40;0.40;;;13.00;99.90;;;;;;5118123;28;20042;-70
2023/05/30 07:30:18;;;;;;;0.50;0.50;;;13.40;99.90;;;;;;5118119;28;20092;-69
2023/05/30 07:32:43;;;;;;;0.40;0.40;;;13.10;99.90;;;;;;5117970;28;20087;-69
2023/05/30 07:35:09;;;;;;;0.40;0.40;;;13.00;99.90;;;;;;5118185;28;20044;-69
2023/05/30 07:37:37;;;;;;;0.50;0.50;;;13.00;99.90;;;;;;5118042;28;20039;-69
2023/05/30 07:40:05;;;;;;;0.60;0.60;;;12.90;99.90;;;;;;5117852;28;20374;-70
2023/05/30 07:42:36;;;;;;;0.40;0.40;;;12.90;99.90;;;;;;5117795;28;20087;-69
2023/05/30 07:45:02;;;;;;;0.40;0.40;;;12.90;99.90;;;;;;5117764;28;20039;-69
2023/05/30 07:47:28;;;;;;;0.40;0.40;;;12.90;99.90;;;;;;5118188;28;20127;-69
2023/05/30 07:49:54;;;;;;;0.50;0.50;;;13.00;99.90;;;;;;5117635;28;20074;-69
2023/05/30 07:52:20;;;;;;;0.50;0.50;;;13.00;99.90;;;;;;5117937;28;20050;-69
2023/05/30 07:54:45;;;;;;;0.50;0.50;;;13.00;99.90;;;;;;5117613;28;20039;-70
2023/05/30 07:57:13;;;;;;;0.40;0.40;;;12.90;99.90;;;;;;5117519;28;20418;-69
2023/05/30 07:59:42;;;;;;;0.40;0.40;;;13.00;99.90;;;;;;5117475;28;20028;-69
2023/05/30 08:02:08;;;;;;;0.40;0.40;;;13.10;99.90;;;;;;5117594;28;20042;-69
2023/05/30 08:04:33;;;;;;;0.40;0.40;;;12.90;99.90;;;;;;5117710;28;20044;-69
2023/05/30 08:06:59;;;;;;;0.40;0.40;;;13.10;99.90;;;;;;5117758;28;20042;-69
2023/05/30 08:09:25;;;;;;;0.40;0.40;;;13.20;99.90;;;;;;5117080;28;20038;-69
2023/05/30 08:11:52;;;;;;;0.40;0.40;;;13.20;99.90;;;;;;5117258;28;20045;-70
2023/05/30 08:14:17;;;;;;;0.40;0.40;;;13.20;99.90;;;;;;5117199;28;20054;-69
2023/05/30 08:16:43;;;;;;;0.50;0.50;;;13.20;99.90;;;;;;5117012;28;20047;-69
2023/05/30 08:19:08;;;;;;;0.40;0.40;;;13.10;99.90;;;;;;5117091;28;20043;-70
2023/05/30 08:21:36;;;;;;;0.57;0.50;;;13.10;99.90;;;;;;5117053;28;20035;-69
2023/05/30 08:24:02;;;;;;;0.40;0.40;;;13.10;99.90;;;;;;5117189;28;20378;-68
2023/05/30 08:26:30;;;;;;;0.40;0.40;;;13.00;99.90;;;;;;5117007;28;20460;-69
2023/05/30 08:28:56;;;;;;;0.40;0.40;;;13.00;99.90;;;;;;5116869;28;20054;-69
2023/05/30 08:31:22;;;;;;;0.60;0.60;;;13.00;99.90;;;;;;5116147;28;20039;-69
2023/05/30 08:33:47;;;;;;;0.40;0.40;;;13.00;99.90;;;;;;5116828;27;20116;-69
2023/05/30 08:36:13;;;;;;;0.40;0.40;;;13.10;99.90;;;;;;5116838;28;20035;-69
2023/05/30 08:38:39;;;;;;;0.40;0.40;;;13.10;99.90;;;;;;5116798;28;20035;-69
2023/05/30 08:41:05;;;;;;;0.40;0.40;;;13.00;99.90;;;;;;5115799;28;20367;-70
2023/05/30 08:43:31;;;;;;;0.60;0.60;;;13.00;99.90;;;;;;5116617;28;20126;-69
2023/05/30 08:45:57;;;;;;;0.40;0.40;;;13.00;99.90;;;;;;5116346;28;20040;-70
2023/05/30 08:48:31;;;;;;;0.40;0.40;;;13.00;99.90;;;;;;5116548;28;20047;-69
2023/05/30 08:50:57;;;;;;;0.40;0.40;;;13.00;99.90;;;;;;5116651;28;20360;-69
2023/05/30 08:53:30;;;;;;;0.40;0.40;;;13.00;99.90;;;;;;5116776;28;20042;-69
2023/05/30 08:56:07;;;;;;;0.40;0.40;;;13.10;99.90;;;;;;5116607;28;20468;-68
2023/05/30 08:58:36;;;;;;;0.65;0.50;;;13.10;99.90;;;;;;5116103;28;20494;-69
2023/05/30 09:01:02;;;;;;;0.40;0.40;;;13.10;99.90;;;;;;5116315;28;20039;-68
2023/05/30 09:03:29;;;;;;;0.40;0.40;;;13.10;99.90;;;;;;5115819;28;20043;-69
2023/05/30 09:05:56;;;;;;;0.40;0.40;;;13.10;99.90;;;;;;5116213;28;20145;-69
2023/05/30 09:08:26;;;;;;;0.50;0.50;;;13.10;99.90;;;;;;5116174;28;20518;-69
2023/05/30 09:10:53;;;;;;;0.40;0.40;;;13.10;99.90;;;;;;5116094;28;20101;-70
2023/05/30 09:13:20;;;;;;;2.10;1.95;;;13.10;99.90;;;;;;5116521;28;20046;-69
2023/05/30 09:15:46;;;;;;;0.40;0.40;;;13.20;99.90;;;;;;5116064;28;20108;-69
2023/05/30 09:18:12;;;;;;;0.40;0.40;;;13.80;99.90;;;;;;5115863;28;20031;-70
2023/05/30 09:20:39;;;;;;;0.40;0.40;;;13.30;99.90;;;;;;5115974;28;20371;-69
2023/05/30 09:23:06;;;;;;;0.50;0.50;;;13.30;99.90;;;;;;5115943;28;20079;-69
2023/05/30 09:25:45;;;;;;;0.40;0.40;;;13.20;99.90;;;;;;5115828;28;20413;-69
2023/05/30 09:28:12;;;;;;;0.40;0.40;;;13.20;99.90;;;;;;5115818;28;20153;-70
2023/05/30 09:30:59;;;;;;;0.40;0.40;;;13.30;99.90;;;;;;5115775;28;20040;-69
2023/05/30 09:33:40;;;;;;;0.40;0.40;;;13.20;99.90;;;;;;5115635;28;20046;-70
2023/05/30 09:36:07;;;;;;;0.50;0.50;;;13.20;99.90;;;;;;5115589;28;20043;-69
2023/05/30 09:38:33;;;;;;;0.40;0.40;;;13.10;99.90;;;;;;5115614;28;20048;-70
2023/05/30 09:41:03;;;;;;;0.40;0.40;;;13.60;99.90;;;;;;5115630;28;20031;-70
2023/05/30 09:43:37;;;;;;;0.40;0.40;;;13.00;99.90;;;;;;5114353;28;20036;-69
2023/05/30 09:46:05;;;;;;;0.40;0.40;;;13.20;99.90;;;;;;5115136;28;20062;-69
2023/05/30 09:48:32;;;;;;;0.40;0.40;;;13.10;99.90;;;;;;5115288;28;20058;-70
2023/05/30 09:51:01;;;;;;;0.40;0.40;;;13.30;99.90;;;;;;5115362;28;20356;-69
2023/05/30 09:53:33;;;;;;;0.40;0.40;;;13.20;99.90;;;;;;5114995;27;20039;-69
2023/05/30 09:56:02;;;;;;;0.40;0.40;;;13.30;99.90;;;;;;5115412;28;20082;-69
2023/05/30 09:58:28;;;;;;;0.40;0.40;;;13.40;99.90;;;;;;5115206;28;20161;-69
2023/05/30 10:00:56;;;;;;;0.40;0.40;;;13.40;99.90;;;;;;5115178;28;20118;-69
2023/05/30 10:03:41;;;;;;;0.40;0.40;;;13.50;99.90;;;;;;5115095;28;20092;-70
2023/05/30 10:06:14;;;;;;;0.40;0.40;;;13.60;99.90;;;;;;5115110;28;20391;-70
2023/05/30 10:08:44;;;;;;;0.40;0.40;;;13.50;99.90;;;;;;5114921;28;20122;-69
2023/05/30 10:11:11;;;;;;;0.40;0.40;;;13.80;99.90;;;;;;5114536;28;20082;-69
2023/05/30 10:13:37;;;;;;;0.40;0.40;;;13.50;99.90;;;;;;5114936;28;20044;-69
2023/05/30 10:16:09;;;;;;;0.38;0.38;;;13.50;99.90;;;;;;5114796;28;20058;-69
2023/05/30 10:18:39;;;;;;;0.40;0.40;;;13.60;99.90;;;;;;5114886;28;20048;-70
2023/05/30 10:21:07;;;;;;;0.40;0.40;;;13.60;99.90;;;;;;5114641;28;20533;-70
2023/05/30 10:23:33;;;;;;;0.50;0.50;;;13.80;99.90;;;;;;5114589;28;20035;-69
2023/05/30 10:26:02;;;;;;;0.40;0.40;;;13.70;99.90;;;;;;5113650;28;20053;-70
2023/05/30 10:28:30;;;;;;;0.50;0.50;;;13.70;99.90;;;;;;5114630;28;20047;-70
2023/05/30 10:30:56;;;;;;;0.40;0.40;;;13.70;99.90;;;;;;5114592;28;20039;-69
2023/05/30 10:33:25;;;;;;;0.40;0.40;;;13.80;99.90;;;;;;5114819;28;20039;-69
2023/05/30 10:35:51;;;;;;;0.40;0.40;;;13.90;99.90;;;;;;5114518;28;20118;-69
2023/05/30 10:38:18;;;;;;;0.40;0.40;;;14.00;99.90;;;;;;5114562;28;20040;-69
2023/05/30 10:40:47;;;;;;;0.40;0.40;;;14.20;99.90;;;;;;5114078;28;20031;-69
2023/05/30 10:43:28;;;;;;;0.40;0.40;;;14.30;99.90;;;;;;5114272;28;20039;-69
2023/05/30 10:46:18;;;;;;;0.50;0.50;;;14.30;99.90;;;;;;5114881;28;20521;-69
2023/05/30 10:48:50;;;;;;;0.40;0.40;;;14.40;99.90;;;;;;5114416;28;20047;-70
2023/05/30 10:51:16;;;;;;;0.40;0.40;;;14.40;99.90;;;;;;5114262;28;20048;-70
2023/05/30 10:53:44;;;;;;;0.40;0.40;;;15.00;99.90;;;;;;5113766;28;20043;-69
2023/05/30 10:56:42;;;;;;;0.75;0.75;;;14.40;99.90;;;;;;5114116;28;20074;-70
2023/05/30 10:59:17;;;;;;;0.40;0.40;;;14.40;99.90;;;;;;5113937;28;20479;-70
2023/05/30 11:02:06;;;;;;;0.47;0.47;;;14.40;99.90;;;;;;5114106;28;20039;-70
2023/05/30 11:04:42;;;;;;;0.40;0.40;;;14.40;99.90;;;;;;5114059;28;20036;-69
2023/05/30 11:07:11;;;;;;;0.40;0.40;;;14.40;99.90;;;;;;5114355;28;20085;-69
2023/05/30 11:09:41;;;;;;;0.40;0.40;;;14.40;99.90;;;;;;5114031;28;20131;-70
2023/05/30 11:12:08;;;;;;;0.40;0.40;;;14.50;99.90;;;;;;5112770;28;20472;-69
2023/05/30 11:14:39;;;;;;;0.40;0.40;;;14.40;99.90;;;;;;5114063;28;20075;-70
2023/05/30 11:17:06;;;;;;;0.50;0.50;;;14.40;99.90;;;;;;5114075;28;20387;-69
2023/05/30 11:19:40;;;;;;;0.50;0.50;;;14.40;99.90;;;;;;5114199;28;20043;-69
2023/05/30 11:22:15;;;;;;;0.40;0.40;;;14.40;99.90;;;;;;5113977;28;20075;-70
2023/05/30 11:24:42;;;;;;;0.40;0.40;;;14.40;99.90;;;;;;5113801;28;20416;-70
2023/05/30 11:27:12;;;;;;;0.40;0.40;;;14.40;99.90;;;;;;5113918;28;20077;-69
2023/05/30 11:29:47;;;;;;;0.40;0.40;;;14.50;99.90;;;;;;5113907;28;20040;-69
2023/05/30 11:32:22;;;;;;;0.40;0.40;;;14.60;99.90;;;;;;5113951;28;20047;-70
2023/05/30 11:34:57;;;;;;;0.40;0.40;;;14.70;99.90;;;;;;5113960;28;20040;-69
2023/05/30 11:37:22;;;;;;;0.40;0.40;;;14.80;99.90;;;;;;5113762;28;20047;-69
2023/05/30 11:39:48;;;;;;;0.40;0.40;;;14.80;99.90;;;;;;5113750;28;20138;-69
2023/05/30 11:42:13;;;;;;;0.50;0.50;;;14.80;99.90;;;;;;5113819;28;20088;-69
2023/05/30 11:44:41;;;;;;;0.50;0.50;;;14.80;99.90;;;;;;5113623;28;20484;-70
2023/05/30 11:47:09;;;;;;;0.40;0.40;;;14.80;99.90;;;;;;5113669;28;20044;-70
2023/05/30 11:49:35;;;;;;;0.50;0.50;;;14.90;99.90;;;;;;5113832;28;20036;-69
2023/05/30 11:52:01;;;;;;;0.40;0.40;;;14.90;99.90;;;;;;5113617;28;20050;-70
2023/05/30 11:54:27;;;;;;;0.40;0.40;;;14.90;99.90;;;;;;5113384;28;20075;-69
2023/05/30 11:56:57;;;;;;;0.40;0.40;;;15.00;99.90;;;;;;5113640;28;20091;-69
2023/05/30 11:59:24;;;;;;;0.40;0.40;;;15.00;99.90;;;;;;5113618;28;20379;-69
2023/05/30 12:01:54;;;;;;;0.40;0.40;;;15.00;99.90;;;;;;5113391;28;20047;-69
2023/05/30 12:04:25;;;;;;;0.50;0.50;;;15.00;99.90;;;;;;5112296;28;20081;-69
2023/05/30 12:06:51;;;;;;;0.40;0.40;;;14.90;99.90;;;;;;5115023;28;20532;-70
2023/05/30 12:09:17;;;;;;;0.40;0.40;;;15.00;99.90;;;;;;5117383;28;20032;-70
2023/05/30 12:11:59;;;;;;;0.40;0.40;;;15.10;99.90;;;;;;5117276;28;20052;-70
2023/05/30 12:14:38;;;;;;;0.40;0.40;;;15.00;99.90;;;;;;5116089;28;20122;-70
2023/05/30 12:17:12;;;;;;;0.40;0.40;;;15.00;99.90;;;;;;5117125;28;20058;-69
2023/05/30 12:19:39;;;;;;;0.50;0.50;;;15.10;99.90;;;;;;5117471;28;20036;-69
2023/05/30 12:22:06;;;;;;;0.40;0.40;;;15.10;99.90;;;;;;5116991;28;20032;-69
2023/05/30 12:24:36;;;;;;;0.40;0.40;;;15.00;99.90;;;;;;5116892;28;20082;-69
2023/05/30 12:27:03;;;;;;;0.40;0.40;;;15.00;99.90;;;;;;5117033;28;20050;-70
2023/05/30 12:29:34;;;;;;;0.30;0.30;;;14.80;99.90;;;;;;5116600;28;20075;-69
2023/05/30 12:32:01;;;;;;;0.50;0.50;;;14.80;99.90;;;;;;5116306;28;20416;-69
2023/05/30 12:34:41;;;;;;;;;;;14.80;99.90;;;;;;5117204;28;20040;-70
2023/05/30 12:37:11;;;;;;;0.30;0.30;;;14.80;99.90;;;;;;5116756;27;19915;-69
2023/05/30 12:39:52;;;;;;;0.40;0.40;;;15.00;99.90;;;;;;5116818;28;20320;-69
2023/05/30 12:42:24;;;;;;;0.40;0.40;;;15.10;99.90;;;;;;5116203;28;20417;-69
2023/05/30 12:44:53;;;;;;;0.38;0.38;;;15.10;99.90;;;;;;5116939;28;20088;-69
2023/05/30 12:47:20;;;;;;;0.40;0.40;;;15.20;99.90;;;;;;5116620;28;20074;-69
2023/05/30 12:49:46;;;;;;;0.35;0.35;;;15.60;99.90;;;;;;5116567;28;20035;-70
2023/05/30 12:52:14;;;;;;;0.40;0.40;;;15.40;99.90;;;;;;5116634;28;20044;-70